createdAt,value
2023-05-23T05:00:20.436Z,83.30
2023-05-23T05:05:24.830Z,83.90
2023-05-23T05:10:28.537Z,83.80
2023-05-23T05:15:33.636Z,83.60
2023-05-23T05:20:39.284Z,83.50
2023-05-23T05:25:43.302Z,83.00
2023-05-23T05:30:54.308Z,83.00
2023-05-23T05:35:58.398Z,82.30
2023-05-23T05:41:02.293Z,90.40
2023-05-23T05:46:08.388Z,81.70
2023-05-23T05:51:12.255Z,81.50
2023-05-23T05:56:17.002Z,81.20
2023-05-23T06:01:22.054Z,81.00
2023-05-23T06:06:26.398Z,80.70
2023-05-23T06:11:30.193Z,80.20
2023-05-23T06:16:35.839Z,79.90
2023-05-23T06:21:39.961Z,79.80
2023-05-23T06:26:43.793Z,79.70
2023-05-23T06:31:48.793Z,79.50
2023-05-23T06:36:52.381Z,79.30
2023-05-23T06:41:57.171Z,79.40
2023-05-23T06:47:02.261Z,79.30
2023-05-23T06:52:06.362Z,79.20
2023-05-23T06:57:10.159Z,79.00
2023-05-23T07:02:15.507Z,79.20
2023-05-23T07:07:20.067Z,78.40
2023-05-23T07:12:23.758Z,78.20
2023-05-23T07:17:30.282Z,78.00
2023-05-23T07:22:34.577Z,77.60
2023-05-23T07:27:38.341Z,77.40
2023-05-23T07:32:44.460Z,77.20
2023-05-23T07:37:50.315Z,77.20
2023-05-23T07:42:55.856Z,77.50
2023-05-23T07:48:00.844Z,77.40
2023-05-23T07:53:06.539Z,77.00
2023-05-23T07:58:10.530Z,77.10
2023-05-23T08:03:15.623Z,76.50
2023-05-23T08:08:22.649Z,75.70
2023-05-23T08:13:26.742Z,75.10
2023-05-23T08:18:36.961Z,74.30
2023-05-23T08:23:42.414Z,73.70
2023-05-23T08:28:46.349Z,72.80
2023-05-23T08:33:52.064Z,72.20
2023-05-23T08:38:57.825Z,71.60
2023-05-23T08:44:02.092Z,71.00
2023-05-23T08:49:09.876Z,69.90
2023-05-23T08:54:14.263Z,70.40
2023-05-23T08:59:17.910Z,70.30
2023-05-23T09:04:23.194Z,69.80
2023-05-23T09:09:29.684Z,69.60
2023-05-23T09:14:34.259Z,69.40
2023-05-23T09:19:44.103Z,70.00
2023-05-23T09:24:53.031Z,69.30
2023-05-23T09:29:57.498Z,68.90
2023-05-23T09:35:04.930Z,68.30
2023-05-23T09:40:11.336Z,67.20
2023-05-23T09:45:16.955Z,66.70
2023-05-23T09:50:22.722Z,66.60
2023-05-23T09:55:27.569Z,66.60
2023-05-23T10:00:33.176Z,66.90
2023-05-23T10:05:42.086Z,67.60
2023-05-23T10:11:34.161Z,68.30
2023-05-23T10:16:45.564Z,68.90
2023-05-23T10:21:55.790Z,68.90
2023-05-23T10:26:59.982Z,69.20
2023-05-23T10:32:04.626Z,69.40
2023-05-23T10:37:12.533Z,69.50
2023-05-23T10:42:20.557Z,69.60
2023-05-23T10:47:28.798Z,69.40
2023-05-23T10:52:41.250Z,68.80
2023-05-23T10:57:45.894Z,68.10
2023-05-23T11:02:56.447Z,68.10
2023-05-23T11:08:13.835Z,68.00
2023-05-23T11:13:17.522Z,65.60
2023-05-23T11:18:25.616Z,64.10
2023-05-23T11:23:42.002Z,63.20
2023-05-23T11:28:57.517Z,62.60
2023-05-23T11:34:02.780Z,62.10
2023-05-23T11:39:08.717Z,60.30
2023-05-23T11:44:15.688Z,58.90
2023-05-23T11:49:19.518Z,57.30
2023-05-23T11:54:26.126Z,56.20
2023-05-23T11:59:29.953Z,55.90
2023-05-23T12:04:35.577Z,55.70
2023-05-23T12:09:47.209Z,55.50
2023-05-23T12:14:50.810Z,55.50
2023-05-23T12:19:54.749Z,55.60
2023-05-23T12:24:59.816Z,55.60
2023-05-23T12:30:09.661Z,55.60
2023-05-23T12:35:15.239Z,55.10
2023-05-23T12:40:21.020Z,55.60
2023-05-23T12:45:26.206Z,55.70
2023-05-23T12:50:29.940Z,55.90
2023-05-23T12:55:34.993Z,55.60
2023-05-23T13:00:38.618Z,55.10
2023-05-23T13:05:42.389Z,54.40
2023-05-23T13:10:47.446Z,53.20
2023-05-23T13:15:51.799Z,52.50
2023-05-23T13:20:55.747Z,52.40
2023-05-23T13:26:00.881Z,51.80
2023-05-23T13:31:04.659Z,51.10
2023-05-23T13:36:08.888Z,51.00
2023-05-23T13:41:13.815Z,50.80
2023-05-23T13:46:17.464Z,50.80
2023-05-23T13:51:21.144Z,50.60
2023-05-23T13:56:26.182Z,50.70
2023-05-23T14:01:30.005Z,50.70
2023-05-23T14:11:38.897Z,50.70
2023-05-23T14:16:42.537Z,51.10
2023-05-23T14:21:46.270Z,51.00
2023-05-23T14:26:51.257Z,51.10
2023-05-23T14:31:54.984Z,51.60
2023-05-23T14:36:58.665Z,52.10
2023-05-23T14:42:03.863Z,52.10
2023-05-23T14:47:07.729Z,52.20
2023-05-23T14:52:12.687Z,52.20
2023-05-23T14:57:17.692Z,52.10
2023-05-23T15:02:21.448Z,51.80
2023-05-23T15:07:25.110Z,51.70
2023-05-23T15:12:30.085Z,51.40
2023-05-23T15:17:34.968Z,51.10
2023-05-23T15:22:40.030Z,51.90
2023-05-23T15:27:45.719Z,51.10
2023-05-23T15:32:49.528Z,51.30
2023-05-23T15:37:53.131Z,51.30
2023-05-23T15:42:58.083Z,51.30
2023-05-23T15:48:01.765Z,51.40
2023-05-23T15:53:05.885Z,51.60
2023-05-23T15:58:11.285Z,51.70
2023-05-23T16:03:14.963Z,51.80
2023-05-23T16:08:18.673Z,51.90
2023-05-23T16:13:23.602Z,51.50
2023-05-23T16:18:27.268Z,51.90
2023-05-23T16:23:30.909Z,51.90
2023-05-23T16:28:35.893Z,52.00
2023-05-23T16:33:39.474Z,52.70
2023-05-23T16:43:48.474Z,51.70
2023-05-23T16:48:52.035Z,52.20
2023-05-23T16:53:55.686Z,52.40
2023-05-23T16:59:00.872Z,52.50
2023-05-23T17:04:05.560Z,52.70
2023-05-23T17:09:09.176Z,53.10
2023-05-23T17:14:14.267Z,53.20
2023-05-23T17:19:18.022Z,53.50
2023-05-23T17:24:21.545Z,53.80
2023-05-23T17:29:27.158Z,54.50
2023-05-23T17:34:30.747Z,54.00
2023-05-23T17:39:34.453Z,54.00
2023-05-23T17:44:40.250Z,53.80
2023-05-23T17:49:43.849Z,53.60
2023-05-23T17:54:47.523Z,53.50
2023-05-23T17:59:52.476Z,53.50
2023-05-23T18:04:56.554Z,53.60
2023-05-23T18:10:00.660Z,53.80
2023-05-23T18:15:07.514Z,53.80
2023-05-23T18:20:12.720Z,54.00
2023-05-23T18:25:19.561Z,54.10
2023-05-23T18:30:24.530Z,54.20
2023-05-23T18:35:28.171Z,54.30
2023-05-23T18:40:31.737Z,54.30
2023-05-23T18:45:36.930Z,54.40
2023-05-23T18:50:40.669Z,54.60
2023-05-23T18:55:44.676Z,54.50
2023-05-23T19:00:49.971Z,54.70
2023-05-23T19:05:53.574Z,54.90
2023-05-23T19:10:57.208Z,55.20
2023-05-23T19:16:02.163Z,55.10
2023-05-23T19:21:05.750Z,55.30
2023-05-23T19:26:10.212Z,55.50
2023-05-23T19:31:15.015Z,55.70
2023-05-23T19:36:18.635Z,55.90
2023-05-23T19:41:22.412Z,56.00
2023-05-23T19:46:28.904Z,56.10
2023-05-23T19:51:32.818Z,56.40
2023-05-23T19:56:36.532Z,56.80
2023-05-23T20:01:41.503Z,57.00
2023-05-23T20:06:45.055Z,57.20
2023-05-23T20:11:48.650Z,57.40
2023-05-23T20:16:54.002Z,57.70
2023-05-23T20:21:57.757Z,57.90
2023-05-23T20:27:01.373Z,58.20
2023-05-23T20:32:07.447Z,58.50
2023-05-23T20:37:13.680Z,59.00
2023-05-23T20:42:17.460Z,59.00
2023-05-23T20:47:22.403Z,59.40
2023-05-23T20:52:25.998Z,59.50
2023-05-23T21:02:35.389Z,59.70
2023-05-23T21:07:39.508Z,60.20
2023-05-23T21:12:49.280Z,60.50
2023-05-23T21:17:54.429Z,60.80
2023-05-23T21:22:58.399Z,61.00
2023-05-23T21:28:01.968Z,61.20
2023-05-23T21:33:06.990Z,61.60
2023-05-23T21:38:10.536Z,61.80
2023-05-23T21:43:14.178Z,62.00
2023-05-23T21:48:19.100Z,62.40
2023-05-23T21:53:22.683Z,62.70
2023-05-23T21:58:26.290Z,62.90
2023-05-23T22:03:31.363Z,62.90
2023-05-23T22:08:35.148Z,63.40
2023-05-23T22:23:52.929Z,64.00
